Time;durP1;ratioP1;P1;durP2;ratioP2;P2;SDS_P1;SDS_P2;PMS_P1;PMS_P2;Temp;Humidity;BMP_temperature;BMP_pressure;BME280_temperature;BME280_humidity;BME280_pressure;Samples;Min_cycle;Max_cycle;Signal;HPM_P1;HPM_P2
2020/12/11 00:04:32;;;;;;;52.85;21.92;;;;;;;2.24;79.95;100518.03;10131776;28;20050;-68
2020/12/11 00:09:28;;;;;;;56.78;22.30;;;;;;;2.20;79.65;100516.13;10137104;28;20564;-68
2020/12/11 00:14:24;;;;;;;56.58;21.70;;;;;;;2.23;80.07;100515.59;10132858;28;20054;-67
2020/12/11 00:19:21;;;;;;;56.20;23.10;;;;;;;2.12;80.34;100509.38;10130219;28;20054;-68
2020/12/11 00:24:17;;;;;;;57.72;23.05;;;;;;;2.16;80.51;100510.47;10117413;28;20078;-68
2020/12/11 00:29:13;;;;;;;54.25;21.98;;;;;;;2.13;80.63;100494.78;10129748;28;20093;-67
2020/12/11 00:34:09;;;;;;;64.78;23.30;;;;;;;2.15;80.54;100487.25;10124813;28;20042;-69
2020/12/11 00:39:05;;;;;;;56.75;22.20;;;;;;;2.14;80.79;100474.84;10132421;28;20054;-68
2020/12/11 00:44:01;;;;;;;60.45;23.95;;;;;;;2.17;81.23;100476.22;10128455;28;20054;-68
2020/12/11 00:48:57;;;;;;;60.95;23.92;;;;;;;2.07;81.07;100477.81;10138791;28;20057;-67
2020/12/11 00:53:53;;;;;;;67.95;23.90;;;;;;;2.14;81.22;100458.66;10131977;28;20054;-67
2020/12/11 00:58:50;;;;;;;74.25;25.80;;;;;;;2.13;80.96;100457.03;10124412;28;20050;-69
2020/12/11 01:03:47;;;;;;;70.40;25.15;;;;;;;2.20;81.40;100452.19;10137028;28;20582;-71
2020/12/11 01:08:43;;;;;;;73.18;25.25;;;;;;;2.25;81.14;100454.06;10117220;28;20522;-70
2020/12/11 01:13:39;;;;;;;72.57;27.23;;;;;;;2.19;81.29;100453.28;10112072;28;20453;-71
2020/12/11 01:18:35;;;;;;;66.38;26.13;;;;;;;2.27;80.50;100447.34;10125426;28;20070;-71
2020/12/11 01:23:32;;;;;;;76.82;26.20;;;;;;;2.12;81.78;100438.44;10133572;28;20065;-68
2020/12/11 01:28:28;;;;;;;84.80;28.63;;;;;;;2.03;81.93;100446.25;10134410;28;20086;-69
2020/12/11 01:33:24;;;;;;;75.03;26.50;;;;;;;2.16;81.34;100437.63;10135166;28;20533;-67
2020/12/11 01:38:20;;;;;;;73.28;27.80;;;;;;;2.15;81.30;100417.13;10123099;28;20076;-70
2020/12/11 01:43:20;;;;;;;71.15;28.60;;;;;;;2.04;82.14;100410.09;10113253;28;20047;-70
2020/12/11 01:48:19;;;;;;;70.03;24.38;;;;;;;2.08;81.86;100395.00;10127700;28;20073;-68
2020/12/11 01:53:15;;;;;;;73.38;26.98;;;;;;;2.08;81.33;100387.72;10126250;28;20038;-68
2020/12/11 01:58:18;;;;;;;60.65;23.65;;;;;;;2.06;81.37;100395.25;10113461;28;20541;-69
2020/12/11 02:03:15;;;;;;;66.32;26.67;;;;;;;2.09;81.81;100380.47;10116353;28;20054;-69
2020/12/11 02:08:12;;;;;;;66.57;24.73;;;;;;;2.05;81.79;100380.16;10130530;28;20051;-68
2020/12/11 02:13:08;;;;;;;59.05;22.95;;;;;;;2.16;81.06;100378.28;10119306;28;20051;-67
2020/12/11 02:18:04;;;;;;;58.50;22.58;;;;;;;2.15;80.95;100383.94;10110343;28;20114;-69
2020/12/11 02:23:00;;;;;;;59.30;23.83;;;;;;;1.96;81.72;100370.19;10128356;28;20050;-68
2020/12/11 02:27:56;;;;;;;60.05;23.88;;;;;;;2.10;81.23;100363.19;10117472;28;20576;-67
2020/12/11 02:32:52;;;;;;;51.22;21.25;;;;;;;2.16;80.29;100347.78;10131050;28;20775;-68
2020/12/11 02:37:48;;;;;;;54.10;20.88;;;;;;;2.07;80.19;100339.47;10126650;28;20097;-69
2020/12/11 02:42:44;;;;;;;49.47;20.95;;;;;;;2.15;80.76;100338.09;10122130;28;20049;-68
2020/12/11 02:47:40;;;;;;;51.17;20.88;;;;;;;2.05;81.06;100325.44;10140101;28;20063;-68
2020/12/11 02:52:36;;;;;;;52.50;21.33;;;;;;;2.17;80.79;100327.84;10126478;28;20062;-68
2020/12/11 02:57:33;;;;;;;49.97;19.98;;;;;;;2.10;80.77;100330.81;10141375;28;20062;-68
2020/12/11 03:02:29;;;;;;;52.05;20.58;;;;;;;1.99;80.90;100326.50;10127086;28;20051;-68
2020/12/11 03:07:26;;;;;;;45.10;19.10;;;;;;;1.99;80.91;100318.41;10120164;28;20046;-68
2020/12/11 03:12:22;;;;;;;49.95;20.52;;;;;;;2.02;80.76;100320.56;10127731;28;20582;-68
2020/12/11 03:17:19;;;;;;;44.20;19.13;;;;;;;1.87;81.48;100306.00;10126933;28;20407;-68
2020/12/11 03:22:15;;;;;;;49.92;20.50;;;;;;;2.00;81.41;100301.97;10134935;28;20069;-68
2020/12/11 03:27:11;;;;;;;49.72;19.83;;;;;;;2.09;80.83;100291.47;10132725;28;20086;-68
2020/12/11 03:32:07;;;;;;;49.70;20.52;;;;;;;1.86;81.09;100296.31;10128538;28;20090;-66
2020/12/11 03:37:03;;;;;;;55.78;20.42;;;;;;;1.60;81.95;100289.28;10134795;28;20129;-66
2020/12/11 03:41:59;;;;;;;45.50;18.98;;;;;;;1.93;81.45;100284.44;10126452;28;20109;-68
2020/12/11 03:46:55;;;;;;;51.28;19.92;;;;;;;1.90;82.03;100280.41;10139381;28;20506;-70
2020/12/11 03:51:53;;;;;;;48.72;20.48;;;;;;;1.93;81.40;100273.66;10135827;28;20047;-69
2020/12/11 03:56:49;;;;;;;42.00;18.52;;;;;;;1.93;81.48;100269.09;10134216;28;20114;-69
2020/12/11 04:01:46;;;;;;;50.80;19.27;;;;;;;1.88;81.84;100261.81;10128968;28;20043;-69
2020/12/11 04:06:42;;;;;;;51.80;19.58;;;;;;;1.91;82.04;100260.47;10123851;28;20149;-69
2020/12/11 04:11:38;;;;;;;46.60;19.92;;;;;;;2.01;81.43;100265.81;10141268;28;20053;-70
2020/12/11 04:16:34;;;;;;;44.83;20.00;;;;;;;1.98;81.79;100249.41;10126254;28;20101;-69
2020/12/11 04:21:30;;;;;;;50.72;21.08;;;;;;;2.08;81.39;100252.06;10130909;28;20199;-70
2020/12/11 04:26:26;;;;;;;49.75;20.10;;;;;;;2.01;80.99;100241.56;10125587;28;20518;-70
2020/12/11 04:31:22;;;;;;;53.78;20.17;;;;;;;2.02;81.67;100242.34;10139135;28;20054;-69
2020/12/11 04:36:18;;;;;;;49.42;20.95;;;;;;;2.18;81.44;100233.19;10120467;28;20043;-69
2020/12/11 04:41:15;;;;;;;51.60;20.80;;;;;;;1.96;80.80;100230.78;10109007;28;20058;-69
2020/12/11 04:46:13;;;;;;;44.13;18.63;;;;;;;2.08;80.81;100233.19;10127480;28;20074;-68
2020/12/11 04:51:09;;;;;;;46.20;17.75;;;;;;;1.95;81.15;100231.03;10127951;28;20074;-69
2020/12/11 04:56:06;;;;;;;47.53;20.85;;;;;;;1.65;82.56;100235.41;10126994;28;20553;-70
2020/12/11 05:01:05;;;;;;;51.35;21.20;;;;;;;1.79;82.70;100224.91;10126778;28;20081;-70
2020/12/11 05:06:03;;;;;;;51.67;21.05;;;;;;;1.92;81.47;100218.13;10131618;28;20132;-69
2020/12/11 05:10:59;;;;;;;51.03;22.13;;;;;;;1.81;81.36;100223.53;10136788;28;20074;-68
2020/12/11 05:16:12;;;;;;;46.20;20.48;;;;;;;1.93;81.18;100208.94;10134173;28;20434;-69
2020/12/11 05:21:20;;;;;;;46.03;20.45;;;;;;;1.88;81.80;100202.50;10111774;28;20620;-69
2020/12/11 05:26:20;;;;;;;43.58;19.10;;;;;;;1.98;81.05;100200.88;10116184;28;20506;-69
2020/12/11 05:31:16;;;;;;;54.45;21.42;;;;;;;1.66;82.60;100199.28;10093812;28;20053;-70
2020/12/11 05:36:13;;;;;;;45.05;19.63;;;;;;;1.99;81.21;100191.69;10129870;28;20531;-69
2020/12/11 05:41:10;;;;;;;44.28;19.23;;;;;;;1.93;81.09;100192.75;10112278;28;20050;-69
2020/12/11 05:46:06;;;;;;;44.67;19.30;;;;;;;1.91;81.17;100189.56;10131215;28;20477;-69
2020/12/11 05:51:15;;;;;;;41.33;18.60;;;;;;;1.99;80.94;100180.91;10130785;28;20525;-70
2020/12/11 05:56:12;;;;;;;43.90;18.48;;;;;;;1.97;81.19;100180.34;10130691;28;20077;-71
2020/12/11 06:01:17;;;;;;;46.45;18.52;;;;;;;1.98;81.09;100173.91;10127084;28;20050;-69
2020/12/11 06:06:17;;;;;;;51.50;19.60;;;;;;;1.95;81.05;100169.03;10133314;28;20511;-70
2020/12/11 06:11:21;;;;;;;46.13;19.08;;;;;;;1.92;80.61;100175.78;10131418;28;20046;-70
2020/12/11 06:16:20;;;;;;;44.33;17.98;;;;;;;1.83;80.84;100189.03;10139157;28;20057;-70
2020/12/11 06:21:18;;;;;;;48.67;20.23;;;;;;;1.91;80.91;100189.56;10145098;28;20061;-71
2020/12/11 06:26:15;;;;;;;45.58;19.38;;;;;;;1.92;80.88;100174.97;10139291;28;20465;-69
2020/12/11 06:31:20;;;;;;;49.28;20.40;;;;;;;1.95;81.21;100177.13;10143405;28;20545;-69
2020/12/11 06:36:17;;;;;;;50.17;19.27;;;;;;;1.83;80.89;100189.03;10106781;28;20081;-69
2020/12/11 06:41:28;;;;;;;54.15;21.42;;;;;;;1.88;81.21;100178.22;10129014;28;20663;-70
2020/12/11 06:46:26;;;;;;;55.33;22.45;;;;;;;1.97;81.05;100183.06;10123909;28;20058;-70
2020/12/11 06:51:22;;;;;;;59.22;21.77;;;;;;;1.86;81.21;100180.38;10135903;28;20076;-68
2020/12/11 06:56:44;;;;;;;54.55;21.48;;;;;;;1.96;80.94;100176.06;10117213;28;20403;-70
2020/12/11 07:01:40;;;;;;;58.58;22.90;;;;;;;1.83;81.30;100172.84;10123472;28;20498;-70
2020/12/11 07:06:37;;;;;;;59.78;23.23;;;;;;;1.86;80.85;100164.22;10137010;28;20054;-70
2020/12/11 07:11:33;;;;;;;59.03;24.15;;;;;;;1.97;80.99;100172.28;10135127;28;20057;-69
2020/12/11 07:16:29;;;;;;;66.97;25.45;;;;;;;1.96;81.47;100159.88;10126124;28;20069;-69
2020/12/11 07:21:29;;;;;;;68.40;24.60;;;;;;;1.92;81.78;100158.81;10134949;28;20051;-68
2020/12/11 07:26:25;;;;;;;71.65;26.52;;;;;;;1.94;81.89;100152.06;10123490;28;20054;-67
2020/12/11 07:31:22;;;;;;;67.32;23.77;;;;;;;1.98;81.17;100141.53;10135799;28;20053;-69
2020/12/11 07:36:18;;;;;;;70.38;27.27;;;;;;;2.04;81.48;100135.03;10125830;28;20050;-69
2020/12/11 07:41:18;;;;;;;73.38;25.35;;;;;;;1.86;81.53;100129.16;10123143;28;20090;-70
2020/12/11 07:46:21;;;;;;;81.85;26.77;;;;;;;1.91;81.62;100124.84;10131800;28;21370;-70
2020/12/11 07:51:18;;;;;;;68.85;25.80;;;;;;;1.98;81.74;100119.97;10117026;28;20046;-70
2020/12/11 07:56:14;;;;;;;70.47;25.25;;;;;;;2.01;81.89;100124.81;10123009;28;20047;-69
2020/12/11 08:01:11;;;;;;;73.95;27.67;;;;;;;1.99;81.53;100116.19;10102996;28;20054;-69
2020/12/11 08:06:12;;;;;;;72.95;27.17;;;;;;;1.78;83.21;100110.84;10125196;28;20153;-69
2020/12/11 08:11:22;;;;;;;75.32;28.80;;;;;;;1.95;82.25;100099.75;10107168;28;20065;-70
2020/12/11 08:16:21;;;;;;;76.25;25.05;;;;;;;1.99;82.07;100105.41;10120444;28;20133;-70
2020/12/11 08:21:31;;;;;;;73.28;25.73;;;;;;;1.97;81.76;100107.56;10122678;28;20773;-70
2020/12/11 08:26:39;;;;;;;78.85;27.45;;;;;;;2.13;81.06;100101.03;10129792;28;20110;-69
2020/12/11 08:31:42;;;;;;;75.47;26.45;;;;;;;2.03;81.42;100101.06;10141538;28;20572;-70
2020/12/11 08:36:46;;;;;;;82.25;29.25;;;;;;;1.69;82.47;100096.31;10139212;28;20054;-69
2020/12/11 08:42:18;;;;;;;77.07;25.45;;;;;;;1.96;82.16;100087.09;10114992;28;20465;-69
2020/12/11 08:48:04;;;;;;;72.78;26.95;;;;;;;2.03;81.50;100079.50;10136361;28;20061;-69
2020/12/11 08:52:46;;;;;;;73.93;26.52;;;;;;;1.86;81.89;100069.06;10134094;28;20479;-69
2020/12/11 08:57:42;;;;;;;88.13;29.13;;;;;;;1.75;82.13;100056.69;10141941;28;20054;-69
2020/12/11 09:02:38;;;;;;;81.72;27.83;;;;;;;1.91;82.05;100062.84;10128324;28;20046;-70
2020/12/11 09:07:34;;;;;;;85.45;27.92;;;;;;;1.85;82.56;100062.84;10133032;28;20510;-70
2020/12/11 09:12:30;;;;;;;80.07;27.15;;;;;;;1.88;82.06;100056.91;10101847;28;20121;-69
2020/12/11 09:17:26;;;;;;;73.50;27.15;;;;;;;2.05;81.16;100066.56;10131411;28;20104;-70
2020/12/11 09:22:23;;;;;;;76.95;27.73;;;;;;;1.99;81.96;100054.16;10132536;28;20053;-70
2020/12/11 09:27:19;;;;;;;86.85;29.10;;;;;;;2.04;81.22;100048.75;10135250;28;20058;-69
2020/12/11 09:32:28;;;;;;;93.68;30.90;;;;;;;1.87;82.06;100038.31;10135258;28;20475;-70
2020/12/11 09:37:24;;;;;;;84.40;27.90;;;;;;;2.07;82.02;100037.44;10138747;28;20054;-70
2020/12/11 09:42:53;;;;;;;81.43;27.00;;;;;;;1.99;81.79;100029.91;10128785;28;20046;-70
2020/12/11 09:53:23;;;;;;;74.35;28.70;;;;;;;2.11;81.28;100033.06;10101571;28;20577;-70
2020/12/11 09:58:19;;;;;;;79.70;26.63;;;;;;;2.21;81.01;100038.41;10134915;28;20510;-71
2020/12/11 10:03:19;;;;;;;77.50;28.63;;;;;;;2.07;81.66;100027.44;10115061;28;20050;-70
2020/12/11 10:08:15;;;;;;;84.72;28.40;;;;;;;2.16;80.62;100019.56;10133637;28;20542;-70
2020/12/11 10:13:11;;;;;;;80.10;27.63;;;;;;;2.12;80.74;100029.31;10113074;28;20054;-70
2020/12/11 10:18:07;;;;;;;74.45;27.05;;;;;;;2.11;81.11;100022.28;10132108;28;20410;-70
2020/12/11 10:23:03;;;;;;;73.30;27.73;;;;;;;2.16;81.10;100024.97;10121913;28;20046;-70
2020/12/11 10:27:59;;;;;;;73.40;26.83;;;;;;;2.20;80.91;100020.59;10140878;28;20095;-70
2020/12/11 10:32:56;;;;;;;81.25;30.05;;;;;;;2.21;81.22;100006.06;10106646;28;20053;-70
2020/12/11 10:37:53;;;;;;;71.78;25.67;;;;;;;2.22;80.40;99991.47;10125950;28;20521;-70
2020/12/11 10:42:49;;;;;;;72.13;26.23;;;;;;;2.20;80.76;99987.44;10124053;28;20055;-68
2020/12/11 10:47:45;;;;;;;78.03;28.05;;;;;;;2.16;80.42;99976.41;10121157;28;20301;-69
2020/12/11 10:52:41;;;;;;;77.22;27.73;;;;;;;2.13;80.53;99982.34;10127048;28;20082;-69
2020/12/11 10:57:38;;;;;;;77.53;27.52;;;;;;;2.17;80.73;99972.63;10132878;28;20050;-70
2020/12/11 11:02:35;;;;;;;71.18;26.08;;;;;;;2.27;80.38;99960.94;10129029;28;20109;-69
2020/12/11 11:07:31;;;;;;;70.57;25.60;;;;;;;2.31;79.95;99962.81;10142967;28;20054;-69
2020/12/11 11:12:30;;;;;;;74.45;25.95;;;;;;;2.23;80.28;99955.34;10119245;28;20061;-69
2020/12/11 11:22:40;;;;;;;65.72;24.92;;;;;;;2.33;79.65;99953.66;10119751;28;20078;-70
2020/12/11 11:27:45;;;;;;;68.38;26.45;;;;;;;2.28;79.92;99946.41;10139431;28;20115;-70
2020/12/11 11:32:41;;;;;;;78.00;26.63;;;;;;;2.39;80.12;99936.31;10135740;28;20546;-70
2020/12/11 11:37:37;;;;;;;71.60;28.00;;;;;;;2.40;79.32;99937.94;10103020;28;20066;-70
2020/12/11 11:42:33;;;;;;;78.45;27.90;;;;;;;2.48;79.99;99926.53;10129923;28;20050;-69
2020/12/11 11:47:31;;;;;;;84.63;29.60;;;;;;;2.31;80.19;99914.25;10126234;28;20592;-68
2020/12/11 11:52:42;;;;;;;81.40;27.02;;;;;;;2.39;80.18;99917.44;10134349;28;20103;-66
2020/12/11 11:57:41;;;;;;;71.35;28.45;;;;;;;2.41;80.53;99912.56;10117381;28;20046;-69
2020/12/11 12:02:37;;;;;;;80.00;28.55;;;;;;;2.37;80.96;99906.09;10130970;28;20507;-69
2020/12/11 12:07:35;;;;;;;85.22;29.35;;;;;;;2.22;80.65;99899.75;10133099;28;20046;-69
2020/12/11 12:12:36;;;;;;;82.43;30.33;;;;;;;2.27;80.75;99896.22;10124691;28;20046;-69
2020/12/11 12:17:36;;;;;;;77.70;28.75;;;;;;;2.40;81.03;99878.59;10138120;28;20078;-69
2020/12/11 12:33:30;;;;;;;88.40;28.75;;;;;;;2.28;80.01;99876.25;10134945;28;20043;-69
2020/12/11 12:38:13;;;;;;;77.50;27.85;;;;;;;2.57;79.64;99884.34;10122963;28;20074;-69
2020/12/11 12:43:16;;;;;;;83.57;29.33;;;;;;;2.26;80.18;99868.44;10131504;28;20070;-69
2020/12/11 12:48:12;;;;;;;64.00;22.83;;;;;;;2.46;79.78;99866.63;10120346;28;20050;-69
2020/12/11 12:53:08;;;;;;;72.85;27.30;;;;;;;2.41;79.77;99864.00;10132727;28;20046;-69
2020/12/11 12:58:04;;;;;;;76.70;29.20;;;;;;;2.55;80.03;99856.84;10133243;28;20043;-69
2020/12/11 13:08:03;;;;;;;80.55;28.17;;;;;;;2.25;81.50;99861.44;10138145;28;20066;-69
2020/12/11 13:12:59;;;;;;;81.55;28.75;;;;;;;2.41;80.51;99853.19;10131088;28;20055;-69
2020/12/11 13:17:55;;;;;;;81.60;29.30;;;;;;;2.49;80.03;99847.19;10127330;28;20053;-69
2020/12/11 13:27:49;;;;;;;78.20;28.60;;;;;;;2.37;79.75;99847.59;10135151;28;20187;-69
2020/12/11 13:32:46;;;;;;;81.90;29.00;;;;;;;2.32;80.56;99839.50;10114178;28;20664;-68
2020/12/11 13:37:42;;;;;;;73.95;26.92;;;;;;;2.35;79.99;99838.16;10126099;28;20076;-69
2020/12/11 13:42:39;;;;;;;88.40;29.42;;;;;;;2.04;81.38;99833.84;10120633;28;20418;-68
2020/12/11 13:47:35;;;;;;;86.22;28.75;;;;;;;2.31;80.66;99827.94;10122204;28;20058;-69
2020/12/11 13:52:31;;;;;;;75.57;27.83;;;;;;;2.27;80.95;99824.19;10129009;28;20061;-68
2020/12/11 13:57:27;;;;;;;76.25;25.42;;;;;;;2.40;80.24;99820.03;10112485;28;20062;-68
2020/12/11 14:02:24;;;;;;;70.70;27.13;;;;;;;2.23;80.88;99820.47;10131694;28;20529;-68
2020/12/11 14:07:20;;;;;;;72.32;26.80;;;;;;;2.07;81.20;99827.09;10138357;28;20058;-64
2020/12/11 14:12:16;;;;;;;76.60;29.23;;;;;;;2.33;80.07;99818.75;10135550;28;20047;-69
2020/12/11 14:17:13;;;;;;;77.65;29.23;;;;;;;2.21;80.98;99819.94;10139737;28;20058;-69
2020/12/11 14:27:15;;;;;;;76.00;28.33;;;;;;;2.28;80.51;99817.72;10126659;28;20047;-70
2020/12/11 14:32:11;;;;;;;73.18;27.27;;;;;;;2.36;79.90;99818.19;10133216;28;20059;-70
2020/12/11 14:37:08;;;;;;;70.32;25.88;;;;;;;2.48;80.35;99821.28;10132405;28;20065;-69
2020/12/11 14:42:04;;;;;;;63.83;24.27;;;;;;;2.40;79.99;99821.94;10142145;28;20082;-68
2020/12/11 14:47:01;;;;;;;67.20;24.65;;;;;;;2.28;79.81;99812.31;10131574;28;20129;-68
2020/12/11 14:51:57;;;;;;;70.65;25.92;;;;;;;2.19;81.07;99814.03;10137289;28;20101;-70
2020/12/11 14:56:53;;;;;;;66.78;25.00;;;;;;;2.14;80.87;99806.00;10141232;28;20565;-73
2020/12/11 15:01:49;;;;;;;69.07;26.00;;;;;;;2.17;80.67;99804.63;10119493;28;20061;-68
2020/12/11 15:06:47;;;;;;;66.50;24.48;;;;;;;2.16;80.42;99803.81;10106714;28;20807;-71
2020/12/11 15:11:43;;;;;;;61.10;25.85;;;;;;;2.23;80.04;99798.88;10124077;28;20065;-72
2020/12/11 15:16:39;;;;;;;57.38;24.05;;;;;;;2.24;80.09;99800.47;10137264;28;20054;-69
2020/12/11 15:21:36;;;;;;;57.53;23.90;;;;;;;2.38;79.55;99780.94;10139545;28;20507;-67
2020/12/11 15:26:32;;;;;;;60.63;22.33;;;;;;;2.07;80.92;99779.34;10133144;28;20121;-69
2020/12/11 15:31:28;;;;;;;59.70;25.23;;;;;;;2.01;81.40;99776.97;10141910;28;20069;-69
2020/12/11 15:36:24;;;;;;;60.90;25.33;;;;;;;2.16;81.05;99771.44;10131927;28;20069;-70
2020/12/11 15:41:20;;;;;;;59.65;23.88;;;;;;;2.31;80.43;99765.88;10134698;28;20046;-68
2020/12/11 15:46:19;;;;;;;58.75;23.40;;;;;;;2.26;80.59;99759.75;10138753;28;20057;-68
2020/12/11 15:51:16;;;;;;;66.72;24.13;;;;;;;2.12;80.27;99753.44;10141359;28;20134;-68
2020/12/11 15:56:13;;;;;;;54.25;23.38;;;;;;;2.33;80.12;99754.03;10115800;28;20113;-69
2020/12/11 16:01:09;;;;;;;57.30;23.65;;;;;;;2.05;80.86;99748.38;10139569;28;20061;-68
2020/12/11 16:06:05;;;;;;;58.97;25.00;;;;;;;2.33;79.89;99759.41;10137367;28;20046;-68
2020/12/11 16:11:01;;;;;;;57.58;25.70;;;;;;;2.39;80.43;99758.25;10141882;28;20387;-68
2020/12/11 16:15:57;;;;;;;57.17;24.27;;;;;;;2.42;79.30;99736.13;10139210;28;20062;-69
2020/12/11 16:20:53;;;;;;;59.28;25.27;;;;;;;2.33;79.72;99748.63;10124353;28;20078;-69
2020/12/11 16:25:49;;;;;;;57.65;23.40;;;;;;;2.28;80.03;99739.50;10125663;28;20504;-68
2020/12/11 16:30:45;;;;;;;61.78;23.88;;;;;;;2.29;79.98;99749.19;10127281;28;20081;-70
2020/12/11 16:35:41;;;;;;;63.00;23.92;;;;;;;2.37;79.65;99749.63;10118020;28;20066;-70
2020/12/11 16:40:39;;;;;;;58.67;25.75;;;;;;;2.38;79.58;99745.88;10103791;28;20053;-70
2020/12/11 16:45:37;;;;;;;59.35;25.15;;;;;;;2.29;80.29;99743.78;10128423;28;20050;-70
2020/12/11 16:50:33;;;;;;;52.85;22.58;;;;;;;2.40;79.00;99738.28;10136615;28;20057;-70
2020/12/11 16:55:29;;;;;;;58.55;24.42;;;;;;;2.31;80.06;99741.59;10134304;28;20058;-69
2020/12/11 17:00:28;;;;;;;57.05;25.17;;;;;;;2.19;79.45;99743.91;10132496;28;20105;-70
2020/12/11 17:10:29;;;;;;;53.35;22.95;;;;;;;2.38;79.42;99741.25;10135386;28;20146;-69
2020/12/11 17:15:25;;;;;;;52.70;22.85;;;;;;;2.51;78.77;99734.38;10139488;28;20053;-69
2020/12/11 17:20:22;;;;;;;58.92;25.55;;;;;;;2.34;79.18;99739.44;10135622;28;20057;-69
2020/12/11 17:25:18;;;;;;;57.75;26.45;;;;;;;2.35;79.27;99746.44;10139246;28;20073;-70
2020/12/11 17:30:33;;;;;;;53.72;24.50;;;;;;;2.54;78.32;99741.91;10131256;28;20525;-69
2020/12/11 17:35:29;;;;;;;;;;;;;;;2.47;79.07;99733.34;10128192;28;20082;-69
2020/12/11 17:40:25;;;;;;;53.42;24.02;;;;;;;2.39;78.80;99728.56;10117417;28;19980;-70
2020/12/11 17:45:21;;;;;;;52.78;25.17;;;;;;;2.40;79.16;99727.50;10137073;28;20115;-70
2020/12/11 17:50:21;;;;;;;55.00;23.83;;;;;;;2.55;78.79;99724.59;10133630;28;20108;-70
2020/12/11 17:55:17;;;;;;;55.83;24.65;;;;;;;2.39;79.11;99717.78;10136604;28;20145;-70
2020/12/11 18:00:14;;;;;;;59.05;26.48;;;;;;;2.56;79.15;99722.72;10133282;28;20054;-70
2020/12/11 18:05:10;;;;;;;53.90;24.38;;;;;;;2.68;78.42;99715.00;10133658;28;20078;-70
2020/12/11 18:10:07;;;;;;;58.70;25.73;;;;;;;2.64;78.03;99709.38;10121617;28;20061;-70
2020/12/11 18:15:03;;;;;;;55.70;26.08;;;;;;;2.60;78.29;99713.78;10125764;28;20050;-70
2020/12/11 18:19:59;;;;;;;57.95;25.30;;;;;;;2.48;78.16;99716.88;10146473;28;20072;-70
2020/12/11 18:24:56;;;;;;;57.30;24.50;;;;;;;2.47;78.65;99715.25;10132202;28;20058;-68
2020/12/11 18:29:53;;;;;;;56.65;26.00;;;;;;;2.42;79.68;99714.53;10129236;28;20469;-69
2020/12/11 18:34:50;;;;;;;54.67;25.60;;;;;;;2.65;78.21;99705.59;10110648;28;20055;-68
2020/12/11 18:39:46;;;;;;;60.78;25.42;;;;;;;2.42;78.88;99709.13;10133303;28;20078;-68
2020/12/11 18:44:42;;;;;;;57.42;23.73;;;;;;;2.66;78.65;99712.59;10141970;28;20775;-69
2020/12/11 18:49:38;;;;;;;49.47;24.67;;;;;;;2.80;77.71;99709.19;10140595;28;20061;-68
2020/12/11 18:54:34;;;;;;;57.30;25.52;;;;;;;2.76;77.93;99713.56;10133350;28;20081;-69
2020/12/11 18:59:31;;;;;;;56.08;25.08;;;;;;;2.69;78.56;99709.34;10123455;28;20092;-68
2020/12/11 19:04:28;;;;;;;52.83;24.67;;;;;;;2.64;78.75;99712.06;10131281;28;20085;-68
2020/12/11 19:09:24;;;;;;;55.13;26.10;;;;;;;2.76;77.83;99708.94;10125124;28;20053;-71
2020/12/11 19:14:22;;;;;;;56.50;23.67;;;;;;;2.66;78.85;99715.28;10125438;28;20431;-71
2020/12/11 19:19:20;;;;;;;53.97;24.25;;;;;;;2.66;78.52;99720.69;10105953;28;20050;-71
2020/12/11 19:24:16;;;;;;;60.90;26.58;;;;;;;2.61;78.61;99723.47;10136352;28;20042;-71
2020/12/11 19:29:13;;;;;;;53.40;24.13;;;;;;;2.79;77.90;99718.41;10126460;28;20058;-70
2020/12/11 19:34:09;;;;;;;51.22;25.27;;;;;;;2.77;78.33;99720.56;10124523;28;21068;-71
2020/12/11 19:39:05;;;;;;;51.80;23.85;;;;;;;2.69;79.14;99725.53;10137241;28;20054;-70
2020/12/11 19:44:01;;;;;;;51.92;25.85;;;;;;;2.63;78.91;99726.69;10136723;28;20047;-67
2020/12/11 19:48:57;;;;;;;51.53;24.60;;;;;;;2.76;78.54;99719.75;10138579;28;20506;-68
2020/12/11 19:53:54;;;;;;;61.13;27.45;;;;;;;2.54;79.30;99728.41;10133711;28;20055;-69
2020/12/11 19:58:50;;;;;;;57.38;25.73;;;;;;;2.73;78.87;99721.13;10137463;28;20059;-68
2020/12/11 20:03:46;;;;;;;50.05;24.30;;;;;;;2.68;79.51;99729.31;10143726;28;20046;-69
2020/12/11 20:13:57;;;;;;;53.97;24.65;;;;;;;2.60;79.62;99732.66;10131854;28;20046;-69
2020/12/11 20:18:53;;;;;;;58.38;27.50;;;;;;;2.74;79.49;99728.16;10136493;28;20050;-69
2020/12/11 20:23:49;;;;;;;54.55;25.33;;;;;;;2.85;78.11;99722.63;10133440;28;20054;-69
2020/12/11 20:28:45;;;;;;;51.65;25.85;;;;;;;2.92;78.21;99720.34;10127001;28;20050;-71
2020/12/11 20:33:41;;;;;;;64.75;25.75;;;;;;;2.93;78.33;99719.28;10136632;28;20042;-71
2020/12/11 20:38:37;;;;;;;54.25;26.45;;;;;;;2.84;78.98;99731.81;10137383;28;20050;-69
2020/12/11 20:43:33;;;;;;;57.10;26.70;;;;;;;2.85;78.78;99728.00;10139418;28;20047;-67
2020/12/11 20:48:29;;;;;;;55.67;25.85;;;;;;;2.72;79.05;99722.25;10140828;28;20113;-68
2020/12/11 20:53:25;;;;;;;53.75;27.00;;;;;;;2.96;78.79;99724.09;10133533;28;20081;-68
2020/12/11 20:58:23;;;;;;;55.45;24.73;;;;;;;2.94;78.53;99727.06;10144906;28;20140;-67
2020/12/11 21:03:19;;;;;;;63.33;28.02;;;;;;;2.72;79.10;99719.53;10140931;28;20042;-68
2020/12/11 21:08:15;;;;;;;61.60;26.02;;;;;;;2.69;79.09;99714.72;10129693;28;20053;-67
2020/12/11 21:13:11;;;;;;;59.70;26.63;;;;;;;2.85;78.87;99720.72;10121801;28;20309;-70
2020/12/11 21:18:08;;;;;;;69.90;27.70;;;;;;;2.67;79.85;99714.22;10132285;28;20777;-68
2020/12/11 21:23:04;;;;;;;64.03;27.65;;;;;;;2.76;79.37;99713.56;10132309;28;20700;-67
2020/12/11 21:28:00;;;;;;;64.85;27.17;;;;;;;2.60;79.95;99715.63;10124011;28;20130;-69
2020/12/11 21:33:09;;;;;;;67.35;29.73;;;;;;;2.79;79.65;99711.09;10127358;28;20118;-69
2020/12/11 21:38:06;;;;;;;64.82;28.75;;;;;;;2.77;79.92;99710.56;10129824;28;20042;-70
2020/12/11 21:43:02;;;;;;;60.35;26.77;;;;;;;2.93;79.37;99709.28;10121222;28;20070;-69
2020/12/11 21:47:58;;;;;;;66.88;27.92;;;;;;;2.68;79.92;99715.81;10122540;28;20422;-68
2020/12/11 21:52:54;;;;;;;62.90;27.92;;;;;;;2.93;79.29;99719.28;10124833;28;20050;-70
2020/12/11 21:57:51;;;;;;;67.97;27.23;;;;;;;2.71;80.39;99717.91;10119434;28;20082;-67
2020/12/11 22:02:50;;;;;;;66.22;29.42;;;;;;;2.79;79.36;99715.69;10118466;28;20146;-68
2020/12/11 22:07:47;;;;;;;74.63;30.27;;;;;;;2.62;80.71;99714.28;10129803;28;20443;-67
2020/12/11 22:12:43;;;;;;;75.90;30.13;;;;;;;2.79;80.42;99713.00;10122900;28;20580;-68
2020/12/11 22:17:40;;;;;;;64.85;28.50;;;;;;;2.71;80.77;99717.91;10123640;28;20514;-67
2020/12/11 22:22:36;;;;;;;64.50;29.90;;;;;;;2.86;79.72;99714.22;10104724;28;20054;-68
2020/12/11 22:27:33;;;;;;;64.28;26.50;;;;;;;2.96;79.28;99710.59;10096663;28;20165;-67
2020/12/11 22:32:29;;;;;;;65.38;28.73;;;;;;;2.87;80.04;99713.13;10115668;28;20054;-67
2020/12/11 22:37:25;;;;;;;65.03;28.00;;;;;;;3.05;79.25;99700.72;10130222;28;20062;-68
2020/12/11 22:42:21;;;;;;;67.32;27.90;;;;;;;2.86;80.07;99708.03;10129219;28;20054;-67
2020/12/11 22:47:17;;;;;;;62.33;27.40;;;;;;;3.00;78.58;99700.81;10123959;28;20050;-68
2020/12/11 22:52:15;;;;;;;60.58;26.17;;;;;;;2.96;78.97;99702.47;10112794;28;20046;-66
2020/12/11 22:57:12;;;;;;;64.78;28.08;;;;;;;2.90;79.02;99696.38;10119036;28;20051;-70
2020/12/11 23:02:08;;;;;;;62.97;29.27;;;;;;;2.89;79.18;99702.84;10123969;28;20074;-68
2020/12/11 23:07:04;;;;;;;69.32;29.15;;;;;;;2.82;79.10;99690.81;10126450;28;20895;-68
2020/12/11 23:12:00;;;;;;;69.05;28.02;;;;;;;2.76;79.35;99691.97;10112115;28;20100;-66
2020/12/11 23:16:56;;;;;;;67.72;28.60;;;;;;;2.71;79.05;99685.53;10125329;28;20059;-68
2020/12/11 23:21:52;;;;;;;63.13;28.00;;;;;;;2.81;79.59;99694.59;10125004;28;20054;-68
2020/12/11 23:26:48;;;;;;;69.30;29.58;;;;;;;2.73;79.39;99688.75;10111077;28;20557;-67
2020/12/11 23:31:47;;;;;;;65.53;26.67;;;;;;;2.80;79.19;99684.91;10117626;28;20142;-69